x

Portland 12 Nm Southeast Of Portland,me (44007) Wave Buoy

8:50pm - Fri 24th Mar 2017 All times are EDT. -4 hours from GMT.

  • Sig Wave height 5.6ft
  • Swell Direction
  • Peak Period 7s
  • Average Period 5s
  • Wind
    7mph, 9mph gusts
  • Sea Temp 38°f
  • 空気 Temp 38°f
  • Sea Pressure 1018.1mb
  • Portland 12 Nm Southeast Of Portland,me
  • Portland 12 Nm Southeast Of Portland,me

More Historic Weather Station data

Upgrade to MSW Pro to gain access to the past 30 days of data for over 8000 Wavebouys and Weather Stations around the globe.

Join Pro

Comparision Forecast

View Surf forecast
   
Fri 03/24 8:50pm 5.5ft 7s 5s 7 9 mph 1018.1mb 38f 38f
7:50pm 5.5ft 7s 5s 16 18 mph 1018.2mb 38f 39f
6:50pm 6ft 7s 5s 20 25 mph 1018.3mb 38f 38f
5:50pm 6ft 7s 5s 22 27 mph 1019.4mb 38f 36f
4:50pm 5ft 6s 5s 20 25 mph 1021.2mb 38f 35f
3:50pm 5ft 6s 5s 25 29 mph 1021.6mb 38f 35f
2:50pm 4.5ft 6s 4s 22 27 mph 1023.6mb 38f 34f
1:50pm 4ft 5s 4s 25 29 mph 1025.3mb 38f 34f
12:50pm 4ft 5s 4s 18 22 mph 1027.3mb 38f 32f
11:50am 4ft 4s 4s 27 31 mph 1029.3mb 38f 32f
10:50am 3.5ft 4s 4s 22 27 mph 1029.3mb 38f 36f
9:50am 2.5ft 4s 3s 20 25 mph 1030.4mb 38f 36f
8:50am 1.6ft 3s 3s 18 22 mph 1031mb 38f 35f
7:50am 1ft 3s 3s 18 20 mph 1031.3mb 37f 34f
6:50am 1ft 2s 3s 13 16 mph 1032.4mb 37f 34f
5:50am 0.7ft  -  5s 13 16 mph 1032.8mb 37f 33f
4:50am 0.7ft  -  5s 9
mph
1032.8mb 37f 32f
3:50am 0.7ft  -  5s 4 7 mph 1032.7mb 37f 31f
2:50am 0.7ft  -  5s  -  2 mph 1032.9mb 37f 30f
1:50am 0.7ft  -  4s 4 7 mph 1034.1mb 37f 30f
12:50am 0.7ft  -  4s 9 11 mph 1034mb 37f 30f
Thu 03/23 11:50pm 1ft 11s 3s 11 13 mph 1033.1mb 38f 30f
10:50pm 1ft 3s 3s 16 18 mph 1033mb 38f 31f
9:50pm 1ft 3s 3s 13 18 mph 1032.8mb 38f 31f
8:50pm 1.3ft 3s 3s 11 13 mph 1032.2mb 38f 32f
7:50pm 1.3ft 3s 3s 13 16 mph 1030.8mb 38f 33f
6:50pm 1.6ft 3s 3s 20 25 mph 1029.6mb 38f 34f
5:50pm 1.6ft 3s 3s 18 25 mph 1028.8mb 38f 34f
4:50pm 1ft 2s 3s 16 20 mph 1028.3mb 38f 34f
3:50pm 1ft 3s 3s 16 20 mph 1028.3mb 38f 32f
2:50pm 1ft 11s 3s 9 11 mph 1028.6mb 38f 30f
1:50pm 1.3ft 11s 3s 13 18 mph 1028.9mb 38f 28f
12:50pm 1.3ft 11s 3s 16 20 mph 1029.5mb 38f 26f
11:50am 1.3ft 3s 3s 11 16 mph 1029.9mb 38f 24f
10:50am 2ft 3s 3s 20 27 mph 1029.9mb 38f 22f
9:50am 2ft 3s 3s 25 31 mph 1029.8mb 38f 21f
8:50am 2ft 3s 3s 20 25 mph 1029.6mb 38f 19f
7:50am 1.6ft 3s 3s 20 27 mph 1029.4mb 38f 18f
6:50am 1.6ft 3s 3s 20 25 mph 1028.7mb 38f 18f
5:50am 2.5ft 4s 3s 22 27 mph 1027.7mb 38f 18f
4:50am 2.5ft 4s 3s 27 34 mph 1026.6mb 38f 19f
3:50am 2.5ft 4s 3s 27 34 mph 1026.2mb 37f 19f
2:50am 2.5ft 3s 3s 27 34 mph 1025.8mb 37f 19f
1:50am 2.5ft 3s 3s 27 36 mph 1025.3mb 37f 20f
12:50am 2.5ft 3s 3s 34 43 mph 1024.5mb 37f 20f
Wed 03/22 11:50pm 3ft 4s 3s 29 36 mph 1023.9mb 37f 20f
10:50pm 2.5ft 4s 3s 27 34 mph 1023.1mb 38f 20f
9:50pm 3.5ft 4s 3s 29 36 mph 1022.2mb 38f 20f
8:50pm 3.5ft 4s 4s 34 40 mph 1021.1mb 38f 20f
7:50pm 3.5ft 4s 4s 31 40 mph 1019.6mb 38f 21f
6:50pm 3.5ft 4s 4s 31 40 mph 1017.9mb 38f 21f
5:50pm 4.5ft 4s 4s 34 40 mph 1016.5mb 38f 22f
4:50pm 4.5ft 4s 4s 34 40 mph 1014.9mb 38f 24f
3:50pm 4.5ft 4s 4s 31 40 mph 1014mb 38f 24f
2:50pm 3.5ft 4s 4s 29 36 mph 1012.7mb 38f 26f
1:50pm 3.5ft 11s 4s 29 38 mph 1012mb 38f 27f
12:50pm 3.5ft 4s 4s 27 36 mph 1011.1mb 38f 28f
11:50am 3.5ft 12s 4s 25 31 mph 1010mb 38f 28f
10:50am 3.5ft 12s 4s 22 27 mph 1009.4mb 38f 29f
9:50am 3.5ft 11s 4s 22 29 mph 1007.9mb 38f 32f
8:50am 3ft 11s 4s 20 27 mph 1006.6mb 38f 34f
7:50am 2.5ft 12s 5s 22 27 mph 1005mb 38f 36f
6:50am 2.5ft 11s 6s 16 18 mph 1004.5mb 38f 37f
5:50am 2.5ft 11s 7s 11 13 mph 1004.7mb 38f 38f
4:50am 2.5ft 11s 7s 7 9 mph 1005.1mb 38f 38f
3:50am 2.5ft 12s 7s 7 9 mph 1005.7mb 38f 38f
2:50am 3ft 11s 8s 4
mph
1006.6mb 38f 38f
1:50am 3.5ft 11s 8s 4 7 mph 1007.2mb 38f 38f
12:50am 3ft 11s 7s 4 7 mph 1007.4mb 38f 38f
Tue 03/21 11:50pm 3.5ft 11s 7s 4 7 mph 1007.9mb 38f 38f
10:50pm 3ft 11s 6s 11
mph
1008.1mb 38f 39f
9:50pm 3.5ft 10s 6s 11 13 mph 1007.9mb 38f 40f
8:50pm 2.5ft 10s 6s 9 11 mph 1008mb 39f 40f
7:50pm 3.5ft 11s 7s 9 11 mph 1007.7mb 39f 40f
6:50pm 3ft 11s 7s 9 11 mph 1007.5mb 39f 40f
5:50pm 3ft 11s 7s 11
mph
1007.7mb 39f 41f
4:50pm 3.5ft 11s 8s 11 13 mph 1008.1mb 39f 41f
3:50pm 3.5ft 10s 8s 7
mph
1008.4mb 39f 41f
2:50pm 4ft 10s 8s 9
mph
1008.8mb 39f 41f
1:50pm 4.5ft 10s 8s 7 9 mph 1009.7mb 39f 41f
12:50pm 4.5ft 10s 8s 7
mph
1010.4mb 39f 40f
11:50am 4.5ft 10s 8s 4 7 mph 1011mb 38f 39f
10:50am 4ft 10s 8s 4 7 mph 1011.4mb 38f 39f
9:50am 4ft 10s 8s 7 9 mph 1011.4mb 38f 38f
8:50am 4.5ft 10s 8s 4 7 mph 1011.5mb 38f 38f
7:50am 4.5ft 10s 8s 4 7 mph 1010.7mb 38f 38f
6:50am 4.5ft 10s 8s 7 9 mph 1010.7mb 38f 37f
5:50am 5ft 10s 8s 4 7 mph 1010.7mb 38f 38f
4:50am 5ft 10s 8s 9 11 mph 1010.7mb 38f 39f
3:50am 4.5ft 9s 8s 9 11 mph 1010.7mb 38f 39f
2:50am 5.5ft 10s 8s 4 9 mph 1011.3mb 38f 39f